createdAt,value
2018-04-30T00:01:23.830Z,99658.39
2018-04-30T00:03:51.429Z,99656.39
2018-04-30T00:06:19.057Z,99649.91
2018-04-30T00:08:46.598Z,99651.95
2018-04-30T00:11:15.092Z,99652.38
2018-04-30T00:13:42.631Z,99650.33
2018-04-30T00:16:10.210Z,99656.35
2018-04-30T00:18:37.745Z,99652.84
2018-04-30T00:21:05.386Z,99656.19
2018-04-30T00:23:32.990Z,99652.56
2018-04-30T00:26:00.546Z,99647.13
2018-04-30T00:28:28.088Z,99647.40
2018-04-30T00:30:55.734Z,99649.91
2018-04-30T00:33:23.325Z,99650.22
2018-04-30T00:35:50.864Z,99651.86
2018-04-30T00:38:18.416Z,99650.77
2018-04-30T00:40:46.050Z,99649.68
2018-04-30T00:43:14.450Z,99651.64
2018-04-30T00:45:42.054Z,99647.05
2018-04-30T00:48:09.654Z,99649.41
2018-04-30T00:50:37.262Z,99653.33
2018-04-30T00:53:04.774Z,99645.89
2018-04-30T00:55:32.415Z,99645.94
2018-04-30T00:57:59.993Z,99650.66
2018-04-30T01:00:27.533Z,99653.37
2018-04-30T01:02:55.178Z,99646.69
2018-04-30T01:05:22.713Z,99649.06
2018-04-30T01:07:50.314Z,99644.25
2018-04-30T01:10:18.654Z,99647.15
2018-04-30T01:12:46.266Z,99648.91
2018-04-30T01:15:13.858Z,99648.52
2018-04-30T01:17:41.462Z,99650.89
2018-04-30T01:20:09.158Z,99644.84
2018-04-30T01:22:36.694Z,99644.63
2018-04-30T01:25:04.307Z,99645.41
2018-04-30T01:27:31.907Z,99645.72
2018-04-30T01:29:59.452Z,99644.38
2018-04-30T01:32:27.042Z,99648.88
2018-04-30T01:34:56.458Z,99638.25
2018-04-30T01:37:24.058Z,99636.56
2018-04-30T01:39:51.653Z,99630.83
2018-04-30T01:42:19.303Z,99634.48
2018-04-30T01:44:46.842Z,99639.45
2018-04-30T01:47:14.444Z,99643.08
2018-04-30T01:49:42.037Z,99641.55
2018-04-30T01:52:09.663Z,99643.87
2018-04-30T01:54:38.266Z,99643.39
2018-04-30T01:57:05.931Z,99635.53
2018-04-30T01:59:33.547Z,99641.66
2018-04-30T02:02:01.152Z,99642.48
2018-04-30T02:04:28.763Z,99640.01
2018-04-30T02:06:56.317Z,99647.04
2018-04-30T02:09:23.926Z,99634.12
2018-04-30T02:11:51.518Z,99636.41
2018-04-30T02:14:19.130Z,99636.17
2018-04-30T02:16:46.806Z,99644.23
2018-04-30T02:19:14.354Z,99641.70
2018-04-30T02:21:41.956Z,99636.16
2018-04-30T02:24:09.501Z,99635.39
2018-04-30T02:26:37.114Z,99635.05
2018-04-30T02:29:04.655Z,99636.50
2018-04-30T02:31:32.323Z,99633.87
2018-04-30T02:34:00.187Z,99625.73
2018-04-30T02:36:27.802Z,99632.25
2018-04-30T02:38:55.358Z,99638.86
2018-04-30T02:41:22.969Z,99631.16
2018-04-30T02:43:50.540Z,99631.32
2018-04-30T02:46:18.130Z,99623.23
2018-04-30T02:48:45.674Z,99628.30
2018-04-30T02:51:13.215Z,99630.89
2018-04-30T02:53:40.874Z,99630.66
2018-04-30T02:56:08.419Z,99643.28
2018-04-30T02:58:36.004Z,99637.13
2018-04-30T03:01:03.698Z,99642.33
2018-04-30T03:03:31.312Z,99642.75
2018-04-30T03:05:59.778Z,99643.05
2018-04-30T03:08:27.483Z,99648.34
2018-04-30T03:10:55.091Z,99646.16
2018-04-30T03:13:22.702Z,99641.00
2018-04-30T03:15:50.303Z,99645.06
2018-04-30T03:18:17.848Z,99638.92
2018-04-30T03:20:45.459Z,99638.89
2018-04-30T03:23:13.110Z,99637.38
2018-04-30T03:25:40.717Z,99640.59
2018-04-30T03:28:09.204Z,99636.43
2018-04-30T03:30:36.834Z,99644.86
2018-04-30T03:33:05.204Z,99644.71
2018-04-30T03:35:32.754Z,99645.44
2018-04-30T03:38:00.302Z,99645.39
2018-04-30T03:40:27.962Z,99647.53
2018-04-30T03:42:55.571Z,99641.80
2018-04-30T03:45:23.153Z,99646.83
2018-04-30T03:47:52.754Z,99640.03
2018-04-30T03:50:20.366Z,99633.73
2018-04-30T03:52:47.911Z,99639.58
2018-04-30T03:55:15.590Z,99644.81
2018-04-30T03:57:43.198Z,99642.41
2018-04-30T04:00:22.398Z,99638.52
2018-04-30T04:03:01.658Z,99639.12
2018-04-30T04:05:41.010Z,99642.89
2018-04-30T04:08:08.618Z,99651.95
2018-04-30T04:10:36.166Z,99645.41
2018-04-30T04:13:03.761Z,99649.30
2018-04-30T04:15:32.394Z,99641.69
2018-04-30T04:18:00.008Z,99648.06
2018-04-30T04:20:27.626Z,99656.78
2018-04-30T04:22:55.266Z,99654.06
2018-04-30T04:25:22.877Z,99659.34
2018-04-30T04:27:50.426Z,99653.07
2018-04-30T04:30:18.018Z,99658.52
2018-04-30T04:32:45.696Z,99660.60
2018-04-30T04:35:13.237Z,99665.05
2018-04-30T04:37:40.826Z,99660.34
2018-04-30T04:40:08.373Z,99661.68
2018-04-30T04:42:35.987Z,99661.42
2018-04-30T04:45:03.530Z,99669.15
2018-04-30T04:47:31.205Z,99665.46
2018-04-30T04:49:58.764Z,99661.67
2018-04-30T04:52:26.334Z,99666.56
2018-04-30T04:54:54.092Z,99666.95
2018-04-30T04:57:21.698Z,99669.66
2018-04-30T04:59:49.243Z,99670.55
2018-04-30T05:02:17.885Z,99672.39
2018-04-30T05:04:46.238Z,99673.33
2018-04-30T05:07:13.786Z,99673.64
2018-04-30T05:09:41.391Z,99667.38
2018-04-30T05:12:10.038Z,99667.70
2018-04-30T05:14:37.653Z,99668.50
2018-04-30T05:17:05.303Z,99667.36
2018-04-30T05:19:33.441Z,99666.27
2018-04-30T05:22:01.650Z,99664.88
2018-04-30T05:24:29.274Z,99665.56
2018-04-30T05:26:57.818Z,99662.30
2018-04-30T05:29:25.412Z,99660.09
2018-04-30T05:31:53.094Z,99658.17
2018-04-30T05:34:21.303Z,99653.56
2018-04-30T05:36:49.934Z,99654.28
2018-04-30T05:39:18.637Z,99652.17
2018-04-30T05:41:46.626Z,99639.92
2018-04-30T05:44:15.155Z,99637.57
2018-04-30T05:46:42.762Z,99635.55
2018-04-30T05:49:10.353Z,99629.70
2018-04-30T05:51:38.038Z,99629.34
2018-04-30T05:54:05.578Z,99622.10
2018-04-30T05:56:33.194Z,99626.00
2018-04-30T05:59:00.821Z,99618.23
2018-04-30T06:01:28.382Z,99619.41
2018-04-30T06:03:55.984Z,99618.13
2018-04-30T06:06:23.619Z,99614.67
2018-04-30T06:08:51.238Z,99616.27
2018-04-30T06:11:18.794Z,99612.41
2018-04-30T06:13:46.402Z,99613.04
2018-04-30T06:16:13.960Z,99607.94
2018-04-30T06:18:41.748Z,99608.66
2018-04-30T06:21:10.292Z,99616.83
2018-04-30T06:23:37.875Z,99622.14
2018-04-30T06:26:05.480Z,99620.66
2018-04-30T06:28:34.008Z,99614.46
2018-04-30T06:31:01.607Z,99607.06
2018-04-30T06:33:29.221Z,99599.40
2018-04-30T06:35:56.846Z,99592.76
2018-04-30T06:38:24.461Z,99586.62
2018-04-30T06:40:52.069Z,99589.33
2018-04-30T06:43:19.671Z,99591.73
2018-04-30T06:45:48.119Z,99582.73
2018-04-30T06:48:15.733Z,99583.38
2018-04-30T06:50:43.287Z,99582.94
2018-04-30T06:53:11.670Z,99582.66
2018-04-30T06:55:39.218Z,99581.90
2018-04-30T06:58:06.836Z,99580.91
2018-04-30T07:00:34.450Z,99577.45
2018-04-30T07:03:01.997Z,99573.64
2018-04-30T07:05:29.664Z,99573.38
2018-04-30T07:07:57.270Z,99576.13
2018-04-30T07:10:24.861Z,99579.20
2018-04-30T07:12:52.406Z,99575.33
2018-04-30T07:15:19.990Z,99579.42
2018-04-30T07:17:47.538Z,99570.06
2018-04-30T07:20:15.138Z,99570.02
2018-04-30T07:22:42.706Z,99572.47
2018-04-30T07:25:11.057Z,99570.77
2018-04-30T07:27:38.745Z,99563.39
2018-04-30T07:30:06.252Z,99568.26
2018-04-30T07:32:33.806Z,99563.25
2018-04-30T07:35:01.405Z,99547.69
2018-04-30T07:37:29.039Z,99548.48
2018-04-30T07:39:56.578Z,99547.12
2018-04-30T07:42:24.140Z,99551.87
2018-04-30T07:44:51.713Z,99547.77
2018-04-30T07:47:19.286Z,99545.95
2018-04-30T07:49:47.696Z,99544.64
2018-04-30T07:52:15.250Z,99546.23
2018-04-30T07:54:42.840Z,99537.22
2018-04-30T07:57:10.470Z,99534.23
2018-04-30T07:59:38.098Z,99542.14
2018-04-30T08:02:05.650Z,99536.02
2018-04-30T08:04:33.333Z,99525.59
2018-04-30T08:07:00.942Z,99524.30
2018-04-30T08:09:28.499Z,99515.98
2018-04-30T08:11:56.163Z,99513.94
2018-04-30T08:14:24.692Z,99518.74
2018-04-30T08:16:53.107Z,99515.39
2018-04-30T08:19:21.739Z,99517.72
2018-04-30T08:21:49.285Z,99517.77
2018-04-30T08:24:17.729Z,99514.97
2018-04-30T08:26:45.404Z,99514.32
2018-04-30T08:29:13.011Z,99514.30
2018-04-30T08:31:42.529Z,99511.21
2018-04-30T08:34:10.187Z,99500.95
2018-04-30T08:36:37.878Z,99500.57
2018-04-30T08:39:05.414Z,99497.55
2018-04-30T08:41:33.115Z,99493.52
2018-04-30T08:44:00.674Z,99491.72
2018-04-30T08:46:28.234Z,99494.08
2018-04-30T08:48:55.878Z,99494.59
2018-04-30T08:51:23.465Z,99487.80
2018-04-30T08:53:51.010Z,99487.97
2018-04-30T08:56:18.618Z,99493.00
2018-04-30T08:58:46.227Z,99487.83
2018-04-30T09:01:14.175Z,99485.78
2018-04-30T09:03:41.805Z,99475.70
2018-04-30T09:06:09.415Z,99476.90
2018-04-30T09:08:37.007Z,99481.34
2018-04-30T09:11:04.615Z,99475.14
2018-04-30T09:13:32.959Z,99481.59
2018-04-30T09:16:00.502Z,99476.44
2018-04-30T09:18:28.073Z,99468.69
2018-04-30T09:20:56.469Z,99464.91
2018-04-30T09:23:24.010Z,99456.47
2018-04-30T09:25:51.664Z,99451.61
2018-04-30T09:28:19.222Z,99447.27
2018-04-30T09:30:46.773Z,99456.01
2018-04-30T09:33:14.448Z,99445.42
2018-04-30T09:35:42.810Z,99441.80
2018-04-30T09:38:10.423Z,99436.40
2018-04-30T09:40:39.921Z,99433.05
2018-04-30T09:43:07.540Z,99432.56
2018-04-30T09:45:35.180Z,99426.72
2018-04-30T09:48:02.799Z,99430.17
2018-04-30T09:50:30.415Z,99418.44
2018-04-30T09:52:58.006Z,99413.45
2018-04-30T09:55:25.552Z,99412.02
2018-04-30T09:57:53.223Z,99405.47
2018-04-30T10:00:20.861Z,99398.59
2018-04-30T10:02:48.508Z,99398.66
2018-04-30T10:05:16.214Z,99397.33
2018-04-30T10:07:43.778Z,99392.45
2018-04-30T10:10:11.406Z,99385.27
2018-04-30T10:12:39.889Z,99378.73
2018-04-30T10:15:07.458Z,99390.90
2018-04-30T10:17:35.083Z,99379.39
2018-04-30T10:20:02.828Z,99378.83
2018-04-30T10:22:30.385Z,99370.45
2018-04-30T10:24:57.939Z,99358.08
2018-04-30T10:27:25.545Z,99362.63
2018-04-30T10:29:54.000Z,99356.41
2018-04-30T10:32:21.739Z,99356.99
2018-04-30T10:34:49.367Z,99362.56
2018-04-30T10:37:17.064Z,99354.69
2018-04-30T10:39:45.490Z,99356.64
2018-04-30T10:42:13.183Z,99351.72
2018-04-30T10:44:40.811Z,99339.21
2018-04-30T10:47:08.419Z,99346.88
2018-04-30T10:49:36.872Z,99343.50
2018-04-30T10:52:04.488Z,99341.75
2018-04-30T10:54:32.807Z,99337.17
2018-04-30T10:57:00.458Z,99327.25
2018-04-30T10:59:29.045Z,99336.56
2018-04-30T11:01:56.593Z,99328.27
2018-04-30T11:04:24.165Z,99322.62
2018-04-30T11:06:52.669Z,99321.52
2018-04-30T11:09:20.273Z,99321.28
2018-04-30T11:11:47.830Z,99313.16
2018-04-30T11:14:15.475Z,99308.02
2018-04-30T11:16:43.049Z,99306.65
2018-04-30T11:19:10.665Z,99302.98
2018-04-30T11:21:38.212Z,99308.27
2018-04-30T11:24:05.764Z,99307.09
2018-04-30T11:26:34.174Z,99307.80
2018-04-30T11:29:02.806Z,99299.76
2018-04-30T11:31:30.463Z,99301.46
2018-04-30T11:33:58.014Z,99297.55
2018-04-30T11:36:25.662Z,99289.99
2018-04-30T11:38:53.302Z,99286.83
2018-04-30T11:41:20.886Z,99291.23
2018-04-30T11:43:48.591Z,99281.88
2018-04-30T11:46:16.244Z,99283.13
2018-04-30T11:48:43.903Z,99281.30
2018-04-30T11:51:11.530Z,99277.45
2018-04-30T11:53:39.111Z,99275.64
2018-04-30T11:56:06.802Z,99277.67
2018-04-30T11:58:35.234Z,99274.63
2018-04-30T12:01:02.811Z,99277.27
2018-04-30T12:03:31.351Z,99269.81
2018-04-30T12:05:58.918Z,99268.11
2018-04-30T12:08:26.558Z,99263.25
2018-04-30T12:10:54.232Z,99254.19
2018-04-30T12:13:21.764Z,99247.06
2018-04-30T12:15:49.385Z,99235.95
2018-04-30T12:18:17.031Z,99235.69
2018-04-30T12:20:44.651Z,99241.95
2018-04-30T12:23:13.228Z,99241.79
2018-04-30T12:25:40.868Z,99242.53
2018-04-30T12:28:08.422Z,99247.30
2018-04-30T12:30:35.986Z,99241.53
2018-04-30T12:33:03.679Z,99241.34
2018-04-30T12:35:32.252Z,99239.91
2018-04-30T12:38:00.758Z,99235.14
2018-04-30T12:40:28.387Z,99231.23
2018-04-30T12:42:56.037Z,99226.48
2018-04-30T12:45:23.617Z,99226.16
2018-04-30T12:47:51.271Z,99214.67
2018-04-30T12:50:18.855Z,99211.78
2018-04-30T12:52:46.531Z,99214.80
2018-04-30T12:55:14.179Z,99206.36
2018-04-30T12:57:41.763Z,99205.07
2018-04-30T13:00:09.325Z,99205.34
2018-04-30T13:02:36.957Z,99192.52
2018-04-30T13:05:05.619Z,99189.75
2018-04-30T13:07:33.194Z,99195.63
2018-04-30T13:10:00.876Z,99208.54
2018-04-30T13:12:28.442Z,99206.84
2018-04-30T13:14:56.046Z,99201.50
2018-04-30T13:17:24.403Z,99197.02
2018-04-30T13:19:52.009Z,99194.13
2018-04-30T13:22:19.786Z,99191.10
2018-04-30T13:24:47.719Z,99174.81
2018-04-30T13:27:15.458Z,99180.82
2018-04-30T13:29:43.059Z,99184.13
2018-04-30T13:32:10.607Z,99181.71
2018-04-30T13:34:38.729Z,99190.27
2018-04-30T13:37:06.432Z,99184.80
2018-04-30T13:39:33.986Z,99184.16
2018-04-30T13:42:02.471Z,99182.21
2018-04-30T13:44:30.682Z,99190.67
2018-04-30T13:46:59.271Z,99184.48
2018-04-30T13:49:26.975Z,99184.61
2018-04-30T13:51:54.772Z,99183.67
2018-04-30T13:54:22.415Z,99187.13
2018-04-30T13:56:50.923Z,99187.20
2018-04-30T13:59:19.422Z,99192.53
2018-04-30T14:01:47.138Z,99187.08
2018-04-30T14:04:14.947Z,99180.77
2018-04-30T14:06:42.490Z,99186.69
2018-04-30T14:09:10.104Z,99187.78
2018-04-30T14:11:37.646Z,99198.68
2018-04-30T14:14:05.814Z,99206.69
2018-04-30T14:16:33.490Z,99203.89
2018-04-30T14:19:01.106Z,99207.83
2018-04-30T14:21:28.705Z,99213.77
2018-04-30T14:23:56.403Z,99212.92
2018-04-30T14:26:24.009Z,99213.11
2018-04-30T14:28:52.542Z,99201.73
2018-04-30T14:31:20.146Z,99195.36
2018-04-30T14:33:47.695Z,99199.64
2018-04-30T14:36:15.346Z,99192.56
2018-04-30T14:38:43.811Z,99197.10
2018-04-30T14:41:11.462Z,99194.81
2018-04-30T14:43:39.890Z,99192.94
2018-04-30T14:46:07.438Z,99194.20
2018-04-30T14:48:35.026Z,99192.20
2018-04-30T14:51:02.570Z,99190.55
2018-04-30T14:53:30.276Z,99184.89
2018-04-30T14:55:57.826Z,99177.02
2018-04-30T14:58:26.218Z,99181.67
2018-04-30T15:00:53.830Z,99185.02
2018-04-30T15:03:21.447Z,99184.59
2018-04-30T15:05:49.085Z,99181.80
2018-04-30T15:08:16.677Z,99177.80
2018-04-30T15:10:44.225Z,99182.28
2018-04-30T15:13:11.830Z,99182.48
2018-04-30T15:15:39.466Z,99200.17
2018-04-30T15:18:07.078Z,99202.64
2018-04-30T15:20:34.691Z,99200.84
2018-04-30T15:23:03.159Z,99204.32
2018-04-30T15:25:30.782Z,99202.76
2018-04-30T15:27:58.345Z,99200.55
2018-04-30T15:30:26.336Z,99200.61
2018-04-30T15:32:54.892Z,99201.06
2018-04-30T15:35:23.525Z,99197.61
2018-04-30T15:37:51.166Z,99193.39
2018-04-30T15:40:18.779Z,99196.73
2018-04-30T15:42:47.266Z,99191.48
2018-04-30T15:45:15.916Z,99188.31
2018-04-30T15:47:43.648Z,99180.66
2018-04-30T15:50:11.231Z,99177.09
2018-04-30T15:52:39.793Z,99182.95
2018-04-30T15:55:07.404Z,99175.45
2018-04-30T15:57:35.873Z,99176.13
2018-04-30T16:00:04.075Z,99170.95
2018-04-30T16:02:31.627Z,99163.66
2018-04-30T16:04:59.226Z,99165.88
2018-04-30T16:07:27.691Z,99161.66
2018-04-30T16:09:56.254Z,99167.94
2018-04-30T16:12:23.871Z,99173.93
2018-04-30T16:14:52.430Z,99176.51
2018-04-30T16:17:19.983Z,99167.17
2018-04-30T16:19:47.590Z,99162.00
2018-04-30T16:22:15.251Z,99168.37
2018-04-30T16:24:42.803Z,99167.84
2018-04-30T16:27:10.427Z,99177.14
2018-04-30T16:29:37.980Z,99173.16
2018-04-30T16:32:06.428Z,99172.77
2018-04-30T16:34:33.969Z,99166.75
2018-04-30T16:37:01.584Z,99167.50
2018-04-30T16:39:29.150Z,99169.07
2018-04-30T16:41:57.770Z,99166.55
2018-04-30T16:44:25.414Z,99170.40
2018-04-30T16:46:55.166Z,99167.08
2018-04-30T16:49:22.714Z,99167.21
2018-04-30T16:51:51.945Z,99171.23
2018-04-30T16:54:20.270Z,99180.59
2018-04-30T16:56:47.861Z,99181.44
2018-04-30T16:59:15.578Z,99184.27
2018-04-30T17:01:43.135Z,99183.30
2018-04-30T17:04:11.204Z,99188.00
2018-04-30T17:06:40.641Z,99188.30
2018-04-30T17:09:10.237Z,99188.45
2018-04-30T17:11:38.223Z,99193.09
2018-04-30T17:14:05.777Z,99197.50
2018-04-30T17:16:33.422Z,99202.02
2018-04-30T17:19:00.966Z,99201.62
2018-04-30T17:21:28.511Z,99206.95
2018-04-30T17:23:56.125Z,99201.28
2018-04-30T17:26:23.670Z,99203.45
2018-04-30T17:28:51.275Z,99203.81
2018-04-30T17:31:20.571Z,99208.86
2018-04-30T17:33:48.230Z,99206.23
2018-04-30T17:36:15.794Z,99208.34
2018-04-30T17:38:44.362Z,99214.51
2018-04-30T17:41:12.114Z,99210.22
2018-04-30T17:43:39.735Z,99216.12
2018-04-30T17:46:09.202Z,99218.38
2018-04-30T17:48:36.875Z,99216.92
2018-04-30T17:51:05.332Z,99222.75
2018-04-30T17:53:33.866Z,99228.39
2018-04-30T17:56:02.049Z,99230.94
2018-04-30T17:58:29.726Z,99232.04
2018-04-30T18:00:57.568Z,99234.78
2018-04-30T18:03:25.530Z,99241.41
2018-04-30T18:05:53.178Z,99248.58
2018-04-30T18:08:22.257Z,99247.25
2018-04-30T18:10:52.242Z,99251.59
2018-04-30T18:13:20.410Z,99262.30
2018-04-30T18:15:48.494Z,99257.95
2018-04-30T18:18:16.337Z,99262.14
2018-04-30T18:20:44.747Z,99270.17
2018-04-30T18:23:12.475Z,99274.16
2018-04-30T18:25:41.930Z,99272.83
2018-04-30T18:28:10.244Z,99282.44
2018-04-30T18:30:39.055Z,99281.47
2018-04-30T18:33:08.466Z,99283.27
2018-04-30T18:35:36.070Z,99287.70
2018-04-30T18:38:03.681Z,99287.77
2018-04-30T18:40:32.358Z,99296.30
2018-04-30T18:42:59.968Z,99299.09
2018-04-30T18:45:29.394Z,99301.42
2018-04-30T18:47:57.846Z,99297.98
2018-04-30T18:50:25.482Z,99304.68
2018-04-30T18:52:53.091Z,99304.56
2018-04-30T18:55:20.637Z,99302.94
2018-04-30T18:57:48.257Z,99306.06
2018-04-30T19:00:15.806Z,99305.87
2018-04-30T19:02:43.350Z,99300.64
2018-04-30T19:05:12.931Z,99300.92
2018-04-30T19:07:40.531Z,99301.09
2018-04-30T19:10:08.178Z,99307.50
2018-04-30T19:12:35.786Z,99300.58
2018-04-30T19:15:03.409Z,99305.98
2018-04-30T19:17:30.998Z,99303.35
2018-04-30T19:19:59.366Z,99305.42
2018-04-30T19:22:27.930Z,99307.19
2018-04-30T19:24:55.986Z,99314.01
2018-04-30T19:27:23.534Z,99314.98
2018-04-30T19:29:51.146Z,99313.77
2018-04-30T19:32:18.786Z,99313.38
2018-04-30T19:34:47.287Z,99317.38
2018-04-30T19:37:14.903Z,99321.52
2018-04-30T19:39:42.567Z,99326.67
2018-04-30T19:42:10.244Z,99329.12
2018-04-30T19:44:37.959Z,99327.73
2018-04-30T19:47:05.559Z,99330.28
2018-04-30T19:49:33.230Z,99329.25
2018-04-30T19:52:00.981Z,99333.45
2018-04-30T19:54:28.530Z,99323.29
2018-04-30T19:56:56.108Z,99325.09
2018-04-30T19:59:24.556Z,99328.17
2018-04-30T20:01:54.612Z,99323.23
2018-04-30T20:04:23.123Z,99330.59
2018-04-30T20:06:52.187Z,99330.35
2018-04-30T20:09:20.085Z,99339.59
2018-04-30T20:11:47.637Z,99328.80
2018-04-30T20:14:17.819Z,99336.36
2018-04-30T20:16:46.993Z,99336.39
2018-04-30T20:19:14.607Z,99342.05
2018-04-30T20:21:42.194Z,99344.05
2018-04-30T20:24:09.859Z,99344.64
2018-04-30T20:26:37.535Z,99347.44
2018-04-30T20:29:05.187Z,99344.46
2018-04-30T20:31:32.790Z,99354.70
2018-04-30T20:34:00.885Z,99350.80
2018-04-30T20:36:28.454Z,99355.71
2018-04-30T20:38:56.254Z,99358.07
2018-04-30T20:41:24.050Z,99351.16
2018-04-30T20:43:51.671Z,99356.44
2018-04-30T20:46:19.272Z,99352.72
2018-04-30T20:48:47.014Z,99355.85
2018-04-30T20:51:15.109Z,99357.70
2018-04-30T20:53:42.667Z,99359.66
2018-04-30T20:56:11.257Z,99363.34
2018-04-30T20:58:38.807Z,99370.75
2018-04-30T21:01:06.414Z,99369.52
2018-04-30T21:03:34.027Z,99368.55
2018-04-30T21:06:01.719Z,99369.47
2018-04-30T21:08:29.362Z,99367.98
2018-04-30T21:10:57.328Z,99377.98
2018-04-30T21:13:25.558Z,99373.66
2018-04-30T21:15:53.170Z,99374.63
2018-04-30T21:18:21.150Z,99380.59
2018-04-30T21:20:48.826Z,99385.30
2018-04-30T21:23:18.035Z,99380.83
2018-04-30T21:25:45.662Z,99392.88
2018-04-30T21:28:13.363Z,99387.77
2018-04-30T21:30:41.314Z,99389.52
2018-04-30T21:33:08.926Z,99385.55
2018-04-30T21:35:36.575Z,99394.62
2018-04-30T21:38:04.405Z,99392.89
2018-04-30T21:40:32.890Z,99398.30
2018-04-30T21:43:00.450Z,99397.01
2018-04-30T21:45:29.191Z,99393.21
2018-04-30T21:47:56.849Z,99397.88
2018-04-30T21:50:24.442Z,99404.18
2018-04-30T21:52:52.898Z,99399.77
2018-04-30T21:55:20.448Z,99390.36
2018-04-30T21:57:48.092Z,99395.15
2018-04-30T22:00:15.723Z,99397.88
2018-04-30T22:02:43.294Z,99393.43
2018-04-30T22:05:10.895Z,99397.55
2018-04-30T22:07:38.454Z,99392.34
2018-04-30T22:10:06.045Z,99397.52
2018-04-30T22:12:33.598Z,99396.58
2018-04-30T22:15:01.190Z,99401.13
2018-04-30T22:17:28.755Z,99402.49
2018-04-30T22:19:56.314Z,99399.59
2018-04-30T22:22:23.874Z,99390.78
2018-04-30T22:24:51.493Z,99386.16
2018-04-30T22:27:19.107Z,99387.53
2018-04-30T22:29:46.657Z,99383.78
2018-04-30T22:32:15.193Z,99381.77
2018-04-30T22:34:42.806Z,99370.56
2018-04-30T22:37:10.450Z,99368.08
2018-04-30T22:39:37.993Z,99371.44
2018-04-30T22:42:05.598Z,99367.82
2018-04-30T22:44:33.274Z,99365.27
2018-04-30T22:47:00.886Z,99367.13
2018-04-30T22:49:28.437Z,99365.41
2018-04-30T22:51:56.050Z,99364.14
2018-04-30T22:54:23.601Z,99363.56
2018-04-30T22:56:51.222Z,99360.83
2018-04-30T22:59:18.830Z,99359.16
2018-04-30T23:01:46.373Z,99357.78
2018-04-30T23:04:14.195Z,99360.41
2018-04-30T23:06:41.807Z,99363.73
2018-04-30T23:09:09.359Z,99356.34
2018-04-30T23:11:36.966Z,99351.00
2018-04-30T23:14:04.510Z,99347.98
2018-04-30T23:16:32.127Z,99349.61
2018-04-30T23:18:59.738Z,99344.28
2018-04-30T23:21:27.346Z,99350.17
2018-04-30T23:23:54.995Z,99348.35
2018-04-30T23:26:22.658Z,99343.05
2018-04-30T23:28:50.209Z,99347.54
2018-04-30T23:31:19.450Z,99344.18
2018-04-30T23:33:47.042Z,99346.69
2018-04-30T23:36:14.585Z,99346.58
2018-04-30T23:38:42.176Z,99348.84
2018-04-30T23:41:10.622Z,99338.61
2018-04-30T23:43:38.255Z,99342.23
2018-04-30T23:46:05.810Z,99347.08
2018-04-30T23:48:33.366Z,99341.39
2018-04-30T23:51:00.969Z,99340.59
2018-04-30T23:53:28.562Z,99346.82
2018-04-30T23:55:56.614Z,99346.22
2018-04-30T23:58:24.229Z,99344.95
